createdAt,value
2023-04-18T00:00:50.561Z,1187.7
2023-04-18T00:04:17.058Z,1186.6
2023-04-18T00:06:00.459Z,1185.8
2023-04-18T00:07:43.911Z,1182.1
2023-04-18T00:09:27.249Z,1175.7
2023-04-18T00:11:10.638Z,1170.7
2023-04-18T00:12:54.026Z,1168.4
2023-04-18T00:14:37.444Z,1166.5
2023-04-18T00:16:20.834Z,1166.5
2023-04-18T00:21:30.065Z,1161.3
2023-04-18T00:23:13.442Z,1161.1
2023-04-18T00:24:56.858Z,1160
2023-04-18T00:26:40.276Z,1161.3
2023-04-18T00:28:23.639Z,1158.8
2023-04-18T00:30:07.054Z,1156.3
2023-04-18T00:32:05.080Z,1155.7
2023-04-18T00:33:33.838Z,1153.7
2023-04-18T00:37:00.308Z,1151.1
2023-04-18T00:38:43.703Z,1150.3
2023-04-18T00:40:27.096Z,1151.6
2023-04-18T00:42:10.483Z,1148.2
2023-04-18T00:43:53.887Z,1146.3
2023-04-18T00:45:37.298Z,1147.7
2023-04-18T00:47:20.679Z,1144.6
2023-04-18T00:49:04.068Z,1139.1
2023-04-18T00:52:30.566Z,1135.5
2023-04-18T00:54:13.955Z,1130.5
2023-04-18T00:55:57.352Z,1129
2023-04-18T00:57:40.803Z,1128.2
2023-04-18T00:59:24.163Z,1126.3
2023-04-18T01:01:07.683Z,1120.8
2023-04-18T01:02:50.971Z,1117.1
2023-04-18T01:04:34.360Z,1116.1
2023-04-18T01:06:18.104Z,1116.2
2023-04-18T01:08:01.483Z,1114.3
2023-04-18T01:09:44.882Z,1111.3
2023-04-18T01:11:28.269Z,1109.6
2023-04-18T01:13:11.681Z,1106.7
2023-04-18T01:14:55.108Z,1106.3
2023-04-18T01:16:38.426Z,1105.8
2023-04-18T01:18:21.826Z,1104.5
2023-04-18T01:21:48.297Z,1101.9
2023-04-18T01:23:31.705Z,1099.2
2023-04-18T01:25:15.087Z,1096.5
2023-04-18T01:26:58.472Z,1091.2
2023-04-18T01:28:41.904Z,1087.2
2023-04-18T01:30:25.290Z,1084.3
2023-04-18T01:32:08.664Z,1079.7
2023-04-18T01:33:52.069Z,1071.1
2023-04-18T01:37:18.529Z,1064.5
2023-04-18T01:39:01.941Z,1058.2
2023-04-18T01:40:45.333Z,1054.3
2023-04-18T01:42:28.723Z,1050
2023-04-18T01:44:12.122Z,1044.8
2023-04-18T01:45:55.519Z,1041.1
2023-04-18T01:47:38.917Z,1041.7
2023-04-18T01:49:22.307Z,1042
2023-04-18T01:51:06.006Z,1037
2023-04-18T01:52:49.415Z,1031.1
2023-04-18T01:54:32.804Z,1028.1
2023-04-18T01:56:16.209Z,1026.2
2023-04-18T01:57:59.604Z,1025.3
2023-04-18T01:59:42.996Z,1025
2023-04-18T02:01:26.392Z,1027.7
2023-04-18T02:03:09.788Z,1030.8
2023-04-18T02:06:36.277Z,1026.1
2023-04-18T02:08:19.661Z,1021.7
2023-04-18T02:10:03.057Z,1016
2023-04-18T02:11:46.457Z,1012.2
2023-04-18T02:13:29.864Z,1010.4
2023-04-18T02:15:13.253Z,1010.2
2023-04-18T02:16:56.648Z,1008.1
2023-04-18T02:18:40.044Z,1005.8
2023-04-18T02:22:06.500Z,996.7
2023-04-18T02:23:49.916Z,997
2023-04-18T02:25:33.329Z,994.6
2023-04-18T02:27:16.705Z,994.6
2023-04-18T02:29:00.108Z,991.5
2023-04-18T02:30:43.509Z,990.6
2023-04-18T02:32:26.894Z,989.5
2023-04-18T02:34:10.305Z,986
2023-04-18T02:39:19.539Z,979.4
2023-04-18T02:41:02.923Z,979
2023-04-18T02:42:46.333Z,976.3
2023-04-18T02:44:29.711Z,976.3
2023-04-18T02:46:13.105Z,974
2023-04-18T02:47:56.497Z,973.1
2023-04-18T02:49:39.906Z,972.5
2023-04-18T02:51:23.296Z,972.8
2023-04-18T02:54:49.764Z,975.4
2023-04-18T02:56:33.182Z,972.3
2023-04-18T02:58:16.585Z,969.8
2023-04-18T02:59:59.965Z,968.6
2023-04-18T03:01:43.350Z,966.1
2023-04-18T03:03:26.741Z,959.8
2023-04-18T03:05:10.146Z,955
2023-04-18T03:06:53.533Z,953.1
2023-04-18T03:10:20.016Z,948.5
2023-04-18T03:12:03.428Z,946
2023-04-18T03:13:46.803Z,945.2
2023-04-18T03:15:30.215Z,944.2
2023-04-18T03:17:13.608Z,944.5
2023-04-18T03:18:56.988Z,948
2023-04-18T03:20:40.381Z,945.7
2023-04-18T03:22:23.784Z,941.4
2023-04-18T03:27:33.033Z,941.2
2023-04-18T03:29:16.429Z,936.7
2023-04-18T03:30:59.821Z,935
2023-04-18T03:32:43.247Z,932.5
2023-04-18T03:34:26.609Z,932.3
2023-04-18T03:36:10.003Z,929.1
2023-04-18T03:37:53.417Z,924.5
2023-04-18T03:39:36.810Z,920.4
2023-04-18T03:43:03.268Z,912.8
2023-04-18T03:44:46.678Z,907.4
2023-04-18T03:46:30.074Z,905.6
2023-04-18T03:48:13.460Z,901.8
2023-04-18T03:49:56.885Z,900.7
2023-04-18T03:51:40.246Z,900.4
2023-04-18T03:53:23.649Z,898.1
2023-04-18T03:55:07.046Z,896.6
2023-04-18T04:00:16.280Z,892.2
2023-04-18T04:01:59.694Z,893.1
2023-04-18T04:03:43.093Z,891.3
2023-04-18T04:05:26.478Z,889.3
2023-04-18T04:07:09.888Z,887.3
2023-04-18T04:08:53.263Z,884.7
2023-04-18T04:10:36.666Z,884.5
2023-04-18T04:12:20.075Z,881.7
2023-04-18T04:17:29.310Z,884.6
2023-04-18T04:19:12.706Z,881.2
2023-04-18T04:20:56.109Z,880
2023-04-18T04:22:39.493Z,879.2
2023-04-18T04:24:22.909Z,878.1
2023-04-18T04:26:06.295Z,874.7
2023-04-18T04:27:49.683Z,874.5
2023-04-18T04:29:33.129Z,874.3
2023-04-18T04:32:59.554Z,868.9
2023-04-18T04:34:42.958Z,868.7
2023-04-18T04:36:26.387Z,869.6
2023-04-18T04:38:09.735Z,870.1
2023-04-18T04:39:53.130Z,872.4
2023-04-18T04:41:36.582Z,873.6
2023-04-18T04:43:19.924Z,872.7
2023-04-18T04:45:03.309Z,868.7
2023-04-18T04:50:12.692Z,860.2
2023-04-18T04:51:56.037Z,858.7
2023-04-18T04:53:39.362Z,857.6
2023-04-18T04:55:22.759Z,855.3
2023-04-18T04:57:06.147Z,856.4
2023-04-18T04:58:49.533Z,856
2023-04-18T05:00:32.942Z,854.3
2023-04-18T05:02:16.315Z,850.2
2023-04-18T05:05:42.802Z,846.6
2023-04-18T05:07:26.207Z,843.2
2023-04-18T05:09:09.601Z,840.4
2023-04-18T05:10:52.982Z,842
2023-04-18T05:12:36.397Z,843.4
2023-04-18T05:14:19.794Z,845.7
2023-04-18T05:16:03.191Z,844
2023-04-18T05:17:46.590Z,844.1
2023-04-18T05:22:55.820Z,840.7
2023-04-18T05:26:22.609Z,840.1
2023-04-18T05:28:06.101Z,837.6
2023-04-18T05:29:49.412Z,836.5
2023-04-18T05:31:32.809Z,835
2023-04-18T05:33:16.185Z,834.3
2023-04-18T05:34:59.680Z,835.7
2023-04-18T05:38:26.142Z,831.8
2023-04-18T05:40:09.465Z,829.7
2023-04-18T05:41:52.866Z,831.4
2023-04-18T05:43:36.259Z,832.8
2023-04-18T05:45:19.661Z,831.8
2023-04-18T05:47:03.048Z,832.8
2023-04-18T05:48:46.453Z,832
2023-04-18T05:50:29.850Z,829.3
2023-04-18T05:55:39.109Z,828.7
2023-04-18T05:57:22.475Z,826.6
2023-04-18T05:59:05.926Z,826.4
2023-04-18T06:00:49.296Z,824
2023-04-18T06:02:32.661Z,820.7
2023-04-18T06:04:16.102Z,817.6
2023-04-18T06:05:59.451Z,818.6
2023-04-18T06:07:42.845Z,817.4
2023-04-18T06:11:09.345Z,813.6
2023-04-18T06:12:52.756Z,812.1
2023-04-18T06:14:36.158Z,814.3
2023-04-18T06:16:19.656Z,815.4
2023-04-18T06:18:02.991Z,818.3
2023-04-18T06:19:46.330Z,819.2
2023-04-18T06:21:29.714Z,818.5
2023-04-18T06:23:13.107Z,817
2023-04-18T06:26:47.113Z,814.2
2023-04-18T06:28:23.120Z,811.7
2023-04-18T06:30:06.370Z,811.7
2023-04-18T06:31:49.745Z,809.8
2023-04-18T06:33:33.222Z,811.5
2023-04-18T06:35:16.604Z,812.3
2023-04-18T06:37:00.014Z,811.2
2023-04-18T06:38:43.363Z,807.6
2023-04-18T06:42:09.872Z,800.2
2023-04-18T06:43:53.286Z,796.8
2023-04-18T06:45:36.643Z,803.2
2023-04-18T06:47:20.060Z,813.4
2023-04-18T06:49:03.498Z,818.5
2023-04-18T06:50:46.840Z,828.4
2023-04-18T06:52:30.289Z,828.6
2023-04-18T06:54:13.618Z,828.4
2023-04-18T06:57:40.109Z,832.3
2023-04-18T06:59:23.537Z,832.6
2023-04-18T07:01:06.935Z,831.3
2023-04-18T07:02:50.282Z,832.2
2023-04-18T07:04:33.719Z,832.5
2023-04-18T07:06:17.067Z,834
2023-04-18T07:08:00.462Z,837.2
2023-04-18T07:09:44.010Z,842.1
2023-04-18T07:14:53.101Z,834.7
2023-04-18T07:16:36.476Z,831.3
2023-04-18T07:18:19.883Z,826.3
2023-04-18T07:20:03.411Z,825.4
2023-04-18T07:21:46.813Z,823.2
2023-04-18T07:23:30.100Z,820.8
2023-04-18T07:25:13.614Z,821.1
2023-04-18T07:26:56.865Z,820.4
2023-04-18T07:30:23.411Z,814.2
2023-04-18T07:32:06.699Z,813.1
2023-04-18T07:33:50.127Z,817.2
2023-04-18T07:35:33.506Z,823.1
2023-04-18T07:37:16.889Z,836.4
2023-04-18T07:39:00.300Z,847.5
2023-04-18T07:40:43.738Z,883.1
2023-04-18T07:42:27.099Z,873.8
2023-04-18T07:45:53.547Z,881
2023-04-18T07:47:37.048Z,879.5
2023-04-18T07:49:20.509Z,948.4
2023-04-18T07:51:03.859Z,943.4
2023-04-18T07:52:47.173Z,933.5
2023-04-18T07:54:30.554Z,942.7
2023-04-18T07:56:14.039Z,946.6
2023-04-18T07:57:57.595Z,938
2023-04-18T07:59:41.237Z,930.6
2023-04-18T08:01:24.441Z,928.6
2023-04-18T08:03:07.912Z,924.5
2023-04-18T08:04:51.213Z,920.2
2023-04-18T08:06:34.633Z,921.4
2023-04-18T08:08:18.026Z,933.5
2023-04-18T08:10:01.541Z,942
2023-04-18T08:11:44.948Z,946.7
2023-04-18T08:15:11.280Z,957
2023-04-18T08:16:54.674Z,968.1
2023-04-18T08:18:38.077Z,969.4
2023-04-18T08:20:21.476Z,965.4
2023-04-18T08:22:04.872Z,961.1
2023-04-18T08:23:48.256Z,961.3
2023-04-18T08:25:31.664Z,963
2023-04-18T08:27:15.098Z,964.2
2023-04-18T08:30:41.564Z,963.9
2023-04-18T08:32:25.009Z,962.8
2023-04-18T08:34:08.450Z,964
2023-04-18T08:35:51.756Z,962.3
2023-04-18T08:37:35.168Z,961.2
2023-04-18T08:39:18.537Z,959.3
2023-04-18T08:41:01.930Z,956
2023-04-18T08:42:45.329Z,954.4
2023-04-18T08:44:29.040Z,952.9
2023-04-18T08:46:12.437Z,956.4
2023-04-18T08:47:55.804Z,953.3
2023-04-18T08:49:39.211Z,949
2023-04-18T08:51:22.618Z,945.5
2023-04-18T08:53:06.010Z,944.8
2023-04-18T08:54:49.392Z,940.3
2023-04-18T08:56:32.817Z,939.1
2023-04-18T08:59:59.430Z,933.3
2023-04-18T09:01:42.668Z,930.8
2023-04-18T09:03:26.038Z,927.3
2023-04-18T09:05:09.462Z,921.6
2023-04-18T09:06:52.839Z,915.6
2023-04-18T09:08:36.217Z,911.7
2023-04-18T09:10:19.670Z,911.1
2023-04-18T09:12:03.020Z,910.6
2023-04-18T09:15:29.491Z,902.3
2023-04-18T09:17:12.908Z,896.2
2023-04-18T09:18:56.331Z,896.5
2023-04-18T09:20:39.684Z,898.7
2023-04-18T09:22:23.080Z,898.3
2023-04-18T09:24:06.489Z,892
2023-04-18T09:25:49.875Z,886.3
2023-04-18T09:27:33.314Z,882.3
2023-04-18T09:30:59.868Z,880.1
2023-04-18T09:32:43.314Z,875.5
2023-04-18T09:34:26.564Z,872
2023-04-18T09:36:09.952Z,872
2023-04-18T09:37:53.334Z,870.4
2023-04-18T09:39:36.716Z,867
2023-04-18T09:41:20.143Z,866.1
2023-04-18T09:43:03.529Z,865.3
2023-04-18T09:46:29.995Z,862.3
2023-04-18T09:48:13.421Z,862.1
2023-04-18T09:49:56.803Z,863.4
2023-04-18T09:51:40.175Z,874.5
2023-04-18T09:53:23.679Z,877.5
2023-04-18T09:55:07.016Z,882.5
2023-04-18T09:56:50.394Z,887.6
2023-04-18T09:58:33.907Z,885.6
2023-04-18T10:03:42.997Z,886
2023-04-18T10:05:26.412Z,889
2023-04-18T10:07:09.812Z,893.6
2023-04-18T10:08:53.210Z,896.8
2023-04-18T10:10:36.601Z,897
2023-04-18T10:12:20.003Z,899.8
2023-04-18T10:14:03.446Z,900.6
2023-04-18T10:15:46.858Z,904.6
2023-04-18T10:19:13.255Z,906.3
2023-04-18T10:20:56.647Z,908.5
2023-04-18T10:22:40.033Z,907.5
2023-04-18T10:24:23.442Z,905.6
2023-04-18T10:26:06.917Z,904.5
2023-04-18T10:27:50.332Z,904.8
2023-04-18T10:29:33.697Z,907.7
2023-04-18T10:31:17.090Z,906.7
2023-04-18T10:33:00.766Z,904.2
2023-04-18T10:34:44.179Z,904.2
2023-04-18T10:36:27.593Z,905.4
2023-04-18T10:38:10.978Z,903.2
2023-04-18T10:39:54.383Z,904.2
2023-04-18T10:41:37.824Z,906.3
2023-04-18T10:43:21.347Z,909.3
2023-04-18T10:45:04.574Z,912.5
2023-04-18T10:48:31.004Z,907.9
2023-04-18T10:50:14.397Z,904.2
2023-04-18T10:51:57.787Z,906.7
2023-04-18T10:53:41.197Z,907.8
2023-04-18T10:55:24.572Z,906.5
2023-04-18T10:57:08.089Z,915.8
2023-04-18T10:58:51.361Z,928.7
2023-04-18T11:00:34.768Z,950.4
2023-04-18T11:05:44.019Z,950.7
2023-04-18T11:07:27.412Z,945.1
2023-04-18T11:09:10.802Z,945.1
2023-04-18T11:10:54.202Z,945.7
2023-04-18T11:12:37.593Z,949.3
2023-04-18T11:14:21.128Z,952.3
2023-04-18T11:16:04.655Z,953.2
2023-04-18T11:17:47.811Z,954
2023-04-18T11:21:14.338Z,950.5
2023-04-18T11:22:57.905Z,955.3
2023-04-18T11:24:41.105Z,958.8
2023-04-18T11:26:24.645Z,962.5
2023-04-18T11:28:08.010Z,973.3
2023-04-18T11:29:51.375Z,980.7
2023-04-18T11:31:34.776Z,993.6
2023-04-18T11:33:18.023Z,987.6
2023-04-18T11:35:01.426Z,982.5
2023-04-18T11:36:45.137Z,981.8
2023-04-18T11:38:28.549Z,980.1
2023-04-18T11:40:11.952Z,978.5
2023-04-18T11:41:55.347Z,982.8
2023-04-18T11:43:38.763Z,984
2023-04-18T11:45:22.125Z,984.5
2023-04-18T11:47:05.506Z,987
2023-04-18T11:48:48.911Z,987.6
2023-04-18T11:50:32.316Z,989.6
2023-04-18T11:52:16.014Z,990.7
2023-04-18T11:53:59.400Z,989.4
2023-04-18T11:55:42.876Z,986.4
2023-04-18T11:57:26.286Z,989.4
2023-04-18T11:59:09.626Z,999.5
2023-04-18T12:00:53.033Z,1004.4
2023-04-18T12:02:36.425Z,1005.8
2023-04-18T12:04:19.845Z,1009
2023-04-18T12:09:29.100Z,1139.7
2023-04-18T12:11:12.451Z,1120.4
2023-04-18T12:12:55.828Z,1133.1
2023-04-18T12:14:39.225Z,1138.1
2023-04-18T12:16:22.626Z,1126.7
2023-04-18T12:18:06.022Z,1110.1
2023-04-18T12:19:49.414Z,1098
2023-04-18T12:21:32.801Z,1092
2023-04-18T12:23:16.510Z,1091.3
2023-04-18T12:24:59.898Z,1087.7
2023-04-18T12:26:43.331Z,1083.8
2023-04-18T12:28:26.694Z,1085.1
2023-04-18T12:30:10.097Z,1086.1
2023-04-18T12:31:53.499Z,1083.3
2023-04-18T12:33:36.891Z,1082.4
2023-04-18T12:35:20.281Z,1082.3
2023-04-18T12:38:46.766Z,1080.3
2023-04-18T12:40:30.163Z,1082.2
2023-04-18T12:42:13.567Z,1081.2
2023-04-18T12:43:56.962Z,1078.5
2023-04-18T12:45:40.347Z,1079.1
2023-04-18T12:47:23.755Z,1085.5
2023-04-18T12:49:07.166Z,1115.8
2023-04-18T12:50:50.536Z,1163.1
2023-04-18T12:54:17.004Z,1156.1
2023-04-18T12:56:00.412Z,1141.1
2023-04-18T12:59:27.191Z,1120.8
2023-04-18T13:01:10.590Z,1126.5
2023-04-18T13:02:54.000Z,1121.2
2023-04-18T13:04:37.392Z,1133.6
2023-04-18T13:06:20.786Z,1145.7
2023-04-18T13:11:30.041Z,1163.3
2023-04-18T13:13:13.429Z,1172.2
2023-04-18T13:14:56.827Z,1170.1
2023-04-18T13:16:40.225Z,1164.4
2023-04-18T13:18:23.623Z,1159
2023-04-18T13:20:07.015Z,1148.3
2023-04-18T13:21:50.419Z,1138.4
2023-04-18T13:23:33.807Z,1116.7
2023-04-18T13:27:00.289Z,1005.1
2023-04-18T13:28:43.681Z,1011
2023-04-18T13:30:27.079Z,1042.6
2023-04-18T13:32:10.454Z,1042.7
2023-04-18T13:33:53.853Z,1037.8
2023-04-18T13:35:37.295Z,1033.8
2023-04-18T13:37:20.653Z,1031.4
2023-04-18T13:39:04.049Z,1033
2023-04-18T13:42:30.524Z,1073.1
2023-04-18T13:44:13.919Z,1077.4
2023-04-18T13:45:57.312Z,1074.1
2023-04-18T13:47:40.721Z,1082.1
2023-04-18T13:49:24.110Z,1082.7
2023-04-18T13:51:07.500Z,1082.6
2023-04-18T13:52:50.914Z,1079.3
2023-04-18T13:54:34.299Z,1074
2023-04-18T13:56:17.701Z,1069.1
2023-04-18T13:59:44.182Z,1061.7
2023-04-18T14:01:27.565Z,1061.4
2023-04-18T14:03:10.965Z,1063.1
2023-04-18T14:06:37.760Z,1061.6
2023-04-18T14:08:21.155Z,1059.1
2023-04-18T14:10:04.552Z,1057
2023-04-18T14:11:47.969Z,1056.5
2023-04-18T14:13:31.668Z,1064.4
2023-04-18T14:15:15.051Z,1066.5
2023-04-18T14:16:58.459Z,1067.8
2023-04-18T14:18:41.846Z,1070.8
2023-04-18T14:20:25.239Z,1076.3
2023-04-18T14:22:08.671Z,1083.3
2023-04-18T14:23:52.026Z,1083.3
2023-04-18T14:25:35.434Z,1078.6
2023-04-18T14:29:01.899Z,1065.2
2023-04-18T14:30:45.305Z,1069.3
2023-04-18T14:32:28.846Z,1078.5
2023-04-18T14:34:12.225Z,1100.4
2023-04-18T14:35:55.719Z,1104
2023-04-18T14:37:38.965Z,1104.5
2023-04-18T14:39:22.402Z,1110.8
2023-04-18T14:41:05.737Z,1110.3
2023-04-18T14:44:32.241Z,1103.1
2023-04-18T14:46:15.550Z,1100.1
2023-04-18T14:47:59.110Z,1098.2
2023-04-18T14:49:42.520Z,1098.4
2023-04-18T14:51:25.770Z,1097.5
2023-04-18T14:53:09.308Z,1095.7
2023-04-18T14:54:52.558Z,1093.3
2023-04-18T14:56:35.954Z,1091.5
2023-04-18T14:58:19.653Z,1084.9
2023-04-18T15:00:03.021Z,1075.1
2023-04-18T15:01:46.450Z,1071.5
2023-04-18T15:03:29.834Z,1066
2023-04-18T15:05:13.221Z,1061.4
2023-04-18T15:06:56.623Z,1061.7
2023-04-18T15:08:40.103Z,1057
2023-04-18T15:10:23.432Z,1054.2
2023-04-18T15:13:50.102Z,1047.4
2023-04-18T15:15:33.339Z,1046.8
2023-04-18T15:17:16.693Z,1044.5
2023-04-18T15:19:00.080Z,1050.4
2023-04-18T15:20:43.491Z,1055.8
2023-04-18T15:22:26.914Z,1067.5
2023-04-18T15:24:10.269Z,1082.1
2023-04-18T15:25:53.664Z,1083.1
2023-04-18T15:29:20.168Z,1020.6
2023-04-18T15:31:03.550Z,999.6
2023-04-18T15:32:46.950Z,996.3
2023-04-18T15:34:30.331Z,996.3
2023-04-18T15:36:13.714Z,992.4
2023-04-18T15:37:57.179Z,996.2
2023-04-18T15:39:40.545Z,1005.1
2023-04-18T15:41:23.913Z,1006
2023-04-18T15:44:50.387Z,1016.1
2023-04-18T15:46:33.795Z,1021.7
2023-04-18T15:48:17.185Z,1026
2023-04-18T15:50:00.642Z,1027.2
2023-04-18T15:51:43.984Z,1030.3
2023-04-18T15:53:27.389Z,1033.3
2023-04-18T15:55:10.768Z,1038.6
2023-04-18T16:00:20.014Z,1058.1
2023-04-18T16:02:03.407Z,1067.8
2023-04-18T16:03:46.815Z,1075.4
2023-04-18T16:05:30.193Z,1074.7
2023-04-18T16:07:13.589Z,1078.2
2023-04-18T16:08:57.009Z,1087.2
2023-04-18T16:10:40.471Z,1088.7
2023-04-18T16:15:49.646Z,1096.3
2023-04-18T16:17:33.059Z,1098.8
2023-04-18T16:19:16.604Z,1104
2023-04-18T16:20:59.826Z,1108.7
2023-04-18T16:22:43.221Z,1116.8
2023-04-18T16:24:26.645Z,1123
2023-04-18T16:26:10.030Z,1123.5
2023-04-18T16:31:19.253Z,1143.5
2023-04-18T16:33:02.674Z,1150.5
2023-04-18T16:34:46.181Z,1154.6
2023-04-18T16:36:29.475Z,1157.3
2023-04-18T16:38:12.845Z,1157.4
2023-04-18T16:39:56.295Z,1161.4
2023-04-18T16:41:39.690Z,1162.3
2023-04-18T16:43:23.056Z,1164.5
2023-04-18T16:46:49.533Z,1165.1
2023-04-18T16:48:32.929Z,1163.2
2023-04-18T16:50:16.308Z,1163.2
2023-04-18T16:51:59.815Z,1161.6
2023-04-18T16:53:43.105Z,1162.8
2023-04-18T16:55:26.504Z,1164.1
2023-04-18T16:57:09.890Z,1167.8
2023-04-18T16:58:53.377Z,1173.5
2023-04-18T17:00:37.006Z,1176
2023-04-18T17:02:20.508Z,1176.2
2023-04-18T17:04:03.830Z,1175.6
2023-04-18T17:05:47.294Z,1176.6
2023-04-18T17:07:30.598Z,1179.7
2023-04-18T17:09:13.975Z,1191
2023-04-18T17:10:57.372Z,1197.7
2023-04-18T17:12:40.806Z,1201
2023-04-18T17:16:07.264Z,1214.9
2023-04-18T17:17:50.654Z,1224.3
2023-04-18T17:19:34.063Z,1229
2023-04-18T17:21:17.513Z,1231.7
2023-04-18T17:23:00.873Z,1242.3
2023-04-18T17:24:44.273Z,1251
2023-04-18T17:26:27.804Z,1266.5
2023-04-18T17:28:11.035Z,1273
2023-04-18T17:29:54.842Z,1274.6
2023-04-18T17:31:38.115Z,1276.4
2023-04-18T17:33:21.527Z,1276.2
2023-04-18T17:35:04.940Z,1272.7
2023-04-18T17:36:48.326Z,1271
2023-04-18T17:38:31.703Z,1270.6
2023-04-18T17:40:15.215Z,1273.7
2023-04-18T17:41:58.596Z,1275.3
2023-04-18T17:43:42.271Z,1276.1
2023-04-18T17:45:25.612Z,1278.7
2023-04-18T17:47:09.004Z,1286
2023-04-18T17:48:52.418Z,1288.6
2023-04-18T17:50:35.797Z,1289.3
2023-04-18T17:52:19.247Z,1296.6
2023-04-18T17:54:02.588Z,1300.2
2023-04-18T17:55:46.040Z,1300
2023-04-18T17:59:12.457Z,1278.7
2023-04-18T18:00:55.854Z,1273.3
2023-04-18T18:02:39.254Z,1272.5
2023-04-18T18:04:22.653Z,1272.6
2023-04-18T18:06:06.069Z,1273.6
2023-04-18T18:07:49.455Z,1274.5
2023-04-18T18:09:32.854Z,1276.4
2023-04-18T18:14:42.145Z,1265.1
2023-04-18T18:16:25.538Z,1261.6
2023-04-18T18:18:08.888Z,1261.7
2023-04-18T18:19:52.298Z,1261
2023-04-18T18:21:35.680Z,1263.6
2023-04-18T18:23:19.124Z,1262.7
2023-04-18T18:25:02.520Z,1257.4
2023-04-18T18:26:45.853Z,1250.8
2023-04-18T18:30:12.352Z,1236.7
2023-04-18T18:31:55.751Z,1236.6
2023-04-18T18:33:39.155Z,1236.8
2023-04-18T18:35:22.535Z,1233.7
2023-04-18T18:37:05.938Z,1234.3
2023-04-18T18:38:49.346Z,1236.2
2023-04-18T18:40:32.725Z,1237.1
2023-04-18T18:42:16.190Z,1239.6
2023-04-18T18:43:59.819Z,1240.7
2023-04-18T18:45:43.214Z,1243.6
2023-04-18T18:47:26.647Z,1242.3
2023-04-18T18:49:10.016Z,1242.8
2023-04-18T18:50:53.415Z,1246.1
2023-04-18T18:52:36.806Z,1247.8
2023-04-18T18:54:20.224Z,1242.7
2023-04-18T18:56:03.607Z,1240.7
2023-04-18T18:57:47.318Z,1238.6
2023-04-18T18:59:30.708Z,1236.3
2023-04-18T19:01:14.271Z,1233.2
2023-04-18T19:02:57.497Z,1234.5
2023-04-18T19:04:40.924Z,1238.1
2023-04-18T19:06:24.287Z,1240.6
2023-04-18T19:08:07.703Z,1237.8
2023-04-18T19:09:51.087Z,1236.5
2023-04-18T19:13:17.551Z,1233
2023-04-18T19:15:01.030Z,1231.2
2023-04-18T19:16:44.369Z,1231.3
2023-04-18T19:18:27.747Z,1230.6
2023-04-18T19:20:11.173Z,1232.1
2023-04-18T19:21:54.573Z,1234
2023-04-18T19:23:37.962Z,1232.7
2023-04-18T19:28:47.179Z,1233.8
2023-04-18T19:30:30.598Z,1232.1
2023-04-18T19:32:13.982Z,1230.3
2023-04-18T19:33:57.379Z,1232.1
2023-04-18T19:35:40.765Z,1229.8
2023-04-18T19:37:24.162Z,1226.6
2023-04-18T19:39:07.575Z,1221
2023-04-18T19:44:16.832Z,1188.1
2023-04-18T19:46:00.305Z,1140.7
2023-04-18T19:47:43.652Z,1097.3
2023-04-18T19:49:27.023Z,1080.3
2023-04-18T19:51:10.397Z,1073.4
2023-04-18T19:52:53.845Z,1072.4
2023-04-18T19:54:37.170Z,1068.5
2023-04-18T19:56:20.583Z,1064.1
2023-04-18T19:59:47.047Z,1067.6
2023-04-18T20:01:30.502Z,1071.7
2023-04-18T20:03:13.860Z,1073
2023-04-18T20:04:57.288Z,1071
2023-04-18T20:06:40.651Z,1071.5
2023-04-18T20:08:24.058Z,1074.7
2023-04-18T20:10:07.433Z,1074.7
2023-04-18T20:11:50.921Z,1073.2
2023-04-18T20:17:00.094Z,1069.7
2023-04-18T20:18:43.483Z,1064.1
2023-04-18T20:20:26.866Z,1061.5
2023-04-18T20:22:10.265Z,1064
2023-04-18T20:23:53.684Z,1064.1
2023-04-18T20:25:37.083Z,1063
2023-04-18T20:27:20.586Z,1062.6
2023-04-18T20:29:03.849Z,1062.5
2023-04-18T20:32:30.352Z,1062
2023-04-18T20:34:13.728Z,1062.7
2023-04-18T20:35:57.127Z,1064.2
2023-04-18T20:37:40.576Z,1063
2023-04-18T20:39:23.927Z,1061.8
2023-04-18T20:41:07.369Z,1062.4
2023-04-18T20:42:50.715Z,1056.3
2023-04-18T20:46:17.182Z,1053.2
2023-04-18T20:48:00.613Z,1048.3
2023-04-18T20:49:43.977Z,1044.1
2023-04-18T20:51:27.358Z,1045
2023-04-18T20:53:10.752Z,1048.5
2023-04-18T20:54:54.178Z,1047.3
2023-04-18T20:56:37.560Z,1044.7
2023-04-18T20:58:20.940Z,1044
2023-04-18T21:01:47.465Z,1044.5
2023-04-18T21:03:30.855Z,1044.2
2023-04-18T21:05:14.219Z,1044.7
2023-04-18T21:06:57.620Z,1045.5
2023-04-18T21:08:41.008Z,1043.5
2023-04-18T21:10:24.397Z,1043.6
2023-04-18T21:12:07.799Z,1043.7
2023-04-18T21:13:51.225Z,1044.6
2023-04-18T21:15:34.956Z,1045.3
2023-04-18T21:17:18.314Z,1043.6
2023-04-18T21:19:01.742Z,1041.8
2023-04-18T21:20:45.124Z,1039.4
2023-04-18T21:22:28.515Z,1040.6
2023-04-18T21:24:11.896Z,1044.1
2023-04-18T21:25:55.319Z,1043.4
2023-04-18T21:27:38.693Z,1040.4
2023-04-18T21:32:47.943Z,1042.7
2023-04-18T21:34:31.335Z,1040.4
2023-04-18T21:36:14.730Z,1038
2023-04-18T21:37:58.109Z,1039.4
2023-04-18T21:39:41.600Z,1040.1
2023-04-18T21:41:24.909Z,1042.6
2023-04-18T21:43:08.292Z,1045
2023-04-18T21:44:51.710Z,1046.8
2023-04-18T21:46:35.450Z,1045
2023-04-18T21:48:18.838Z,1043.2
2023-04-18T21:50:02.225Z,1039.2
2023-04-18T21:51:45.702Z,1034.7
2023-04-18T21:53:29.011Z,1033.7
2023-04-18T21:55:12.409Z,1032.3
2023-04-18T21:56:55.797Z,1031.4
2023-04-18T21:58:39.349Z,1030.1
2023-04-18T22:00:22.914Z,1028.3
2023-04-18T22:02:06.337Z,1026.8
2023-04-18T22:03:49.682Z,1024.7
2023-04-18T22:05:33.127Z,1027.6
2023-04-18T22:07:16.549Z,1035.4
2023-04-18T22:08:59.869Z,1043.1
2023-04-18T22:10:43.279Z,1044.7
2023-04-18T22:12:26.687Z,1049.1
2023-04-18T22:15:53.169Z,1049.1
2023-04-18T22:17:36.546Z,1047.4
2023-04-18T22:19:19.957Z,1048.6
2023-04-18T22:21:03.387Z,1046.5
2023-04-18T22:22:46.738Z,1042
2023-04-18T22:24:30.126Z,1041.2
2023-04-18T22:26:13.530Z,1042
2023-04-18T22:27:56.930Z,1038.3
2023-04-18T22:31:23.392Z,1038.8
2023-04-18T22:33:06.820Z,1036.7
2023-04-18T22:34:50.272Z,1034.7
2023-04-18T22:36:33.595Z,1031.6
2023-04-18T22:38:17.051Z,1030
2023-04-18T22:40:00.389Z,1028.8
2023-04-18T22:41:43.849Z,1028.6
2023-04-18T22:43:27.221Z,1026.7
2023-04-18T22:46:53.653Z,1019
2023-04-18T22:48:37.158Z,1017
2023-04-18T22:50:20.444Z,1014.7
2023-04-18T22:52:03.863Z,1012
2023-04-18T22:53:47.227Z,1011
2023-04-18T22:55:30.658Z,1010.3
2023-04-18T22:57:14.023Z,1008.7
2023-04-18T22:58:57.436Z,1007.4
2023-04-18T23:00:41.201Z,1006
2023-04-18T23:02:24.592Z,1006.8
2023-04-18T23:04:07.919Z,1003.2
2023-04-18T23:05:51.437Z,1000.3
2023-04-18T23:07:34.767Z,999.6
2023-04-18T23:09:18.193Z,995.6
2023-04-18T23:11:01.571Z,996.5
2023-04-18T23:12:44.955Z,998
2023-04-18T23:16:11.433Z,993.6
2023-04-18T23:17:54.835Z,992
2023-04-18T23:19:38.254Z,989.7
2023-04-18T23:21:21.633Z,989.7
2023-04-18T23:23:04.997Z,991.5
2023-04-18T23:24:48.432Z,989.5
2023-04-18T23:26:31.801Z,988.7
2023-04-18T23:28:15.411Z,987.3
2023-04-18T23:33:24.439Z,979.6
2023-04-18T23:35:07.804Z,977.1
2023-04-18T23:36:51.207Z,978.2
2023-04-18T23:38:34.609Z,976.4
2023-04-18T23:40:17.991Z,970.7
2023-04-18T23:42:01.402Z,970.4
2023-04-18T23:43:44.765Z,969.3
2023-04-18T23:45:28.178Z,966.6
2023-04-18T23:50:37.419Z,959.2
2023-04-18T23:52:20.819Z,959.8
2023-04-18T23:54:04.208Z,960.4
2023-04-18T23:55:47.612Z,957.2
2023-04-18T23:57:31.004Z,956.3
2023-04-18T23:59:14.455Z,956.8
